Weather observations for the past three days for
Hutchinson, Hutchinson Municipal Airport-Butler Field
Metric (Imperial)
Date Time (cdt) Wind (kph) Vis. (km) Weather Sky Cond. Temperature (ºC) Relative Humidity Wind Chill (°C) Heat Index (°C) Pressure Precipitation (cm)
Air Dwpt 6 hour altimeter (cm) sea level (mb) 1 hr 3 hr 6 hr
Max. Min.
03 19:15 SE 7 16.09 Fair CLR 27.3 22.7 76% 30 75.64 0.0
03 18:55 SE 9 16.09 Fair CLR 28 22.6 30.7 28 73% 31 75.62 0.0
03 18:35 S 9 16.09 Fair CLR 29 22.1 66% 32 75.64 0.0
03 18:15 S 13 16.09 Fair CLR 29.3 22 65% 32 75.64 0.0
03 17:55 S 17 16.09 Fair CLR 29.6 21.5 62% 32 75.62 0.0
03 17:35 S 15 16.09 Fair CLR 30 22 62% 33 75.57 0.0
03 17:15 S 19 G 28 16.09 Fair CLR 30.1 21.8 61% 33 75.57 0.0
03 16:55 S 15 16.09 Fair CLR 30.2 21.9 61% 33 75.57 0.0
03 16:35 S 19 G 28 16.09 Partly Cloudy SCT044 30.2 21.7 60% 33 75.57 0.0
03 16:15 S 20 G 33 16.09 Partly Cloudy SCT042 30.6 21.8 59% 34 75.59 0.0
03 15:55 S 15 G 30 16.09 Fair CLR 30.5 22 60% 34 75.59 0.0
03 15:35 S 19 G 33 16.09 Fair CLR 30 22.1 63% 33 75.62 0.0
03 15:15 SE 17 G 26 16.09 Fair CLR 29.8 22.5 65% 33 75.64 0.0
03 14:56 S 17 16.09 Fair CLR 29.7 21.7 62% 33 75.62 0.0
03 14:35 S 17 16.09 Fair CLR 28.6 21.1 64% 31 75.67 0.0
03 14:15 S 19 16.09 Fair CLR 28.9 20.8 62% 31 75.64 0.0
03 13:55 S 17 G 26 16.09 Fair CLR 29.1 21.4 63% 32 75.64 0.0
03 13:35 S 19 G 33 16.09 Fair CLR 29.2 21.1 62% 32 75.67 0.0
03 13:15 S 17 16.09 Thunderstorm in Vicinity CLR 29 21.3 63% 32 75.69 0.0
03 12:55 SE 15 G 26 16.09 Fair CLR 27.9 21.8 27.9 20.3 69% 30 75.69 0.0
03 12:35 SE 19 16.09 Fair CLR 27 21 70% 29 75.72 0.0
03 12:15 S 17 16.09 Fair CLR 26.6 21 71% 28 75.74 0.0
03 11:55 S 19 16.09 Fair CLR 26.8 20.8 70% 29 75.74 0.0
03 11:35 S 19 16.09 Thunderstorm in Vicinity CLR 26 20.2 70% 27 75.77 0.0
03 11:15 SE 15 16.09 Fair CLR 25.5 20.1 72% 27 75.77 0.0
03 10:55 SE 19 G 28 16.09 Fair CLR 26 20.6 72% 27 75.74 0.0
03 10:35 SE 13 16.09 Fair CLR 26.2 21 73% 28 75.77 0.0
03 10:15 SE 13 16.09 Fair CLR 25 20.4 76% 26 75.77 0.0
03 09:55 SE 11 16.09 Fair CLR 24.9 20.2 75% 26 75.77 0.0
03 09:35 SE 11 16.09 Fair CLR 24.9 20.7 78% 26 75.77 0.0
03 09:15 SE 13 16.09 Fair CLR 24.2 20.3 79% 25 75.74 0.0
03 08:55 SE 13 16.09 Fair CLR 23.6 20.6 83% 75.77 0.0
03 08:35 E 9 16.09 Fair CLR 23 20.5 86% 75.79 0.0
03 08:15 E 7 16.09 Fair CLR 22.5 20.4 88% 75.79 0.0
03 07:55 E 7 16.09 Partly Cloudy SCT120 21.7 20.7 94% 75.79 0.0
03 07:35 E 6 16.09 Partly Cloudy SCT120 20.8 20.5 98% 75.79 0.0
03 07:15 E 6 16.09 Fair CLR 20.5 20.2 98% 75.77 0.0
03 06:55 SE 6 8.05 Fog/Mist CLR 20.3 20 21.7 20.1 98% 75.77 0.0
03 06:35 SE 7 11.27 Partly Cloudy SCT120 20.5 20.1 98% 75.77 0.0
03 06:15 SE 6 11.27 Partly Cloudy SCT120 20.5 20.1 98% 75.77 0.0
03 05:55 SE 7 16.09 Fair CLR 20.7 20.5 99% 75.77 0.0
03 05:35 E 11 16.09 Partly Cloudy SCT120 20.7 20.5 99% 75.77 0.0
03 05:15 E 6 11.27 Mostly Cloudy BKN120 20.2 19.9 98% 75.79 0.0
03 04:55 E 7 16.09 Partly Cloudy SCT120 20.5 20.2 98% 75.79 0.0
03 04:35 E 6 16.09 Fair CLR 20.2 20 99% 75.79 0.0
03 04:15 Calm 16.09 Fair CLR 20.3 20 98% 75.79 0.0
03 03:35 E 7 16.09 Light Rain SCT120 21 20 94% 75.79 0.0
03 03:15 E 7 16.09 Partly Cloudy SCT120 20.5 19.3 93% 75.79 0.0
03 02:55 E 7 16.09 Fair CLR 20.5 19 91% 75.82 0.0
03 02:36 E 7 16.09 Fair CLR 20.7 18.5 87% 75.82 0.0
03 02:15 E 9 16.09 Fair CLR 20.9 18.6 87% 75.82 0.0
03 01:55 E 6 16.09 Fair CLR 21.4 18.5 84% 75.84 0.0
03 01:35 E 7 16.09 Fair CLR 21.2 18.3 84% 75.84 0.0
03 01:15 E 7 16.09 Fair CLR 21.6 18.3 82% 75.84 0.0
03 00:55 E 7 16.09 Fair CLR 21.8 18.3 27.5 21.8 81% 75.84 0.0
03 00:35 E 9 16.09 Fair CLR 22 18.3 80% 75.84 0.0
03 00:15 E 9 16.09 Fair CLR 22 18 78% 75.87 0.0
02 23:55 E 9 16.09 Fair CLR 22.6 18.5 78% 75.87 0.0
02 23:35 E 9 16.09 Fair CLR 23 18.6 76% 75.87 0.0
02 23:15 E 9 16.09 Fair CLR 22.7 19.4 82% 75.87 0.0
02 22:55 E 7 16.09 Partly Cloudy SCT046 23.4 19.5 79% 75.87 0.0
02 22:35 E 9 16.09 Overcast OVC046 23.9 19.8 78% 24 75.9 0.0
02 22:15 E 6 16.09 Partly Cloudy SCT046 23.3 19.9 81% 75.9 0.0
02 21:55 E 7 16.09 Fair CLR 24 19.8 77% 25 75.9 0.0
02 21:35 E 6 16.09 Fair CLR 23.5 20 81% 75.9 0.0
02 21:15 E 7 16.09 Fair CLR 24.4 19.9 76% 25 75.87 0.0
02 20:55 E 9 16.09 Fair CLR 24.6 20 76% 25 75.87 0.0
02 20:35 E 7 16.09 Fair CLR 24.5 20.2 77% 25 75.87 0.0
02 20:15 E 7 16.09 Fair CLR 25.2 20.3 74% 26 75.87 0.0
02 19:55 E 7 16.09 Fair CLR 25.8 20.4 72% 27 75.84 0.0
02 19:35 E 7 16.09 Fair CLR 26.4 20.6 71% 28 75.84 0.0
02 19:15 E 7 16.09 Fair CLR 27 20.6 68% 29 75.84 0.0
02 18:55 E 7 16.09 Fair CLR 27.6 20.6 28.7 26.2 66% 29 75.84 0.0
02 18:35 E 7 16.09 Fair CLR 28.1 20.6 64% 30 75.84 0.0
02 18:15 SE 7 16.09 Fair CLR 28 20.6 64% 30 75.84 0.0
02 17:55 SE 7 16.09 Fair CLR 28.3 20.9 64% 30 75.87 0.0
02 17:35 SE 6 16.09 Fair CLR 28.5 20.1 60% 30 75.87 0.0
02 17:15 SE 7 16.09 Fair CLR 28.5 20.4 62% 30 75.87 0.0
02 16:55 SE 11 16.09 Fair CLR 28.6 20.1 60% 30 75.87 0.0
02 16:35 SE 11 16.09 Fair CLR 28.6 20.1 60% 30 75.87 0.0
02 16:15 SE 11 16.09 Fair CLR 29 20 58% 31 75.9 0.0
02 15:55 SE 7 16.09 Fair CLR 28.6 19.7 59% 30 75.9 0.0
02 15:35 E 7 16.09 Fair CLR 28.4 19.4 58% 30 75.92 0.0
02 15:15 E 13 16.09 Fair CLR 28.3 19.7 60% 30 75.92 0.0
02 14:55 E 6 16.09 Fair CLR 27.7 19.1 60% 29 75.92 0.0
02 14:35 SE 11 16.09 Fair CLR 27.5 19.2 61% 29 75.95 0.0
02 14:15 SE 11 16.09 Fair CLR 27.6 19.4 61% 29 75.95 0.0
02 13:55 E 9 16.09 Fair CLR 27.2 18.7 60% 28 75.97 0.0
02 13:35 E 7 16.09 Fair CLR 26.9 18.6 60% 28 76 0.0
02 13:15 E 11 16.09 Fair CLR 26.6 18.8 62% 28 76 0.0
02 12:55 E 13 16.09 Fair CLR 26.1 18.7 26.1 17.1 64% 27 76 0.0
02 12:35 E 9 16.09 Fair CLR 26 18.8 65% 27 76 0.0
02 12:15 SE 11 16.09 Fair CLR 25.8 19.2 67% 27 76 0.0
02 11:55 E 6 16.09 Fair CLR 25 18.9 69% 26 76.02 0.0
02 11:35 SE 9 16.09 Fair CLR 24.4 18.5 70% 25 76.05 0.0
02 11:15 Calm 16.09 Fair CLR 24 18 69% 25 76.1 0.0
02 10:55 SE 7 16.09 Fair CLR 23.7 18 71% 76.05 0.0
02 10:35 E 7 16.09 Fair CLR 23.1 17.8 72% 76.05 0.0
02 10:15 E 9 16.09 Fair CLR 23.2 18.2 74% 76.02 0.0
02 09:55 E 7 16.09 Fair CLR 22.6 18.2 76% 76.02 0.0
02 09:35 E 9 16.09 Fair CLR 22.1 18.1 78% 76 0.0
02 09:15 E 13 16.09 Fair CLR 21.5 18.2 82% 76 0.0
02 08:55 E 13 16.09 Fair CLR 20.7 18.3 86% 76.02 0.0
02 08:35 E 9 16.09 Fair CLR 20.1 18.5 91% 76.05 0.0
02 08:15 E 6 16.09 Fair CLR 19.6 18 91% 76.05 0.0
02 07:55 E 6 16.09 Fair CLR 19 18 94% 76.05 0.0
02 07:35 NE 6 16.09 Partly Cloudy SCT110 18.1 17.7 98% 76.02 0.0
02 07:15 Calm 16.09 Fair CLR 17 17 100% 76 0.0
02 06:55 NE 7 16.09 Fair CLR 17.1 16.8 20.6 17.1 98% 76 0.0
02 06:35 Calm 16.09 Fair CLR 17.5 17.1 98% 76 0.0
02 06:15 E 6 16.09 Partly Cloudy SCT110 18 17.2 95% 76 0.0
02 05:56 E 9 16.09 Partly Cloudy SCT100 18 17 94% 76 0.0
02 05:35 SE 6 16.09 Fair CLR 18.2 17 93% 76 0.0
02 05:15 E 7 16.09 Partly Cloudy SCT100 18 17.1 95% 76.05 0.0
02 04:55 E 6 16.09 Partly Cloudy SCT100 17.3 16.9 98% 76.07 0.0
02 04:35 Calm 16.09 Partly Cloudy SCT120 17.5 16.6 95% 76.07 0.0
02 04:15 S 7 16.09 Fair CLR 18 16.2 89% 76.07 0.0
02 03:55 NE 7 16.09 Fair CLR 19.1 15.8 81% 75.97 0.0
02 03:35 NE 11 16.09 Fair CLR 19.3 16 81% 75.95 0.0
02 03:15 NE 11 16.09 Fair CLR 19.3 16 81% 75.95 0.0
02 02:55 NE 9 16.09 Fair CLR 19.5 16.3 82% 76 0.0
02 02:35 E 6 16.09 Fair CLR 20.1 16.3 79% 75.97 0.0
02 02:15 NE 13 16.09 Fair CLR 19.6 16.6 83% 75.92 0.0
02 01:55 E 11 16.09 Fair CLR 19.8 16.5 81% 75.95 0.0
02 01:35 E 9 16.09 Light Rain SCT070 SCT095 SCT120 20.1 16.2 78% 76 0.0
02 01:15 S 19 G 30 16.09 Light Rain SCT065 BKN095 BKN120 19.3 17.5 89% 76.07 0.0
02 00:55 SE 6 16.09 Thunderstorm Light Drizzle in Vicinity SCT065 SCT075 SCT100 19.2 17.3 23.9 18.5 89% 76.07 0.0
02 00:35 E 6 16.09 Light Rain CLR 20.4 16.7 79% 76.05 0.0
02 00:15 Calm 16.09 Fair CLR 21 16 73% 76.05 0.0
01 23:55 NE 6 16.09 Fair CLR 19.5 17.3 87% 76.05 0.0
01 23:35 Calm 16.09 Fair CLR 18.5 17.4 93% 76.07 0.0
01 23:15 Calm 16.09 Fair CLR 18.5 17.7 95% 76.1 0.0
01 22:55 Calm 16.09 Fair CLR 19.3 17.7 91% 76.05 0.0
01 22:35 Calm 16.09 Fair CLR 19.6 18.7 95% 76.05 0.0
01 22:15 Calm 16.09 Fair CLR 19.5 18.6 95% 76.07 0.0
01 21:55 E 7 16.09 Fair CLR 20.1 19.3 95% 76.02 0.0
01 21:36 Calm 16.09 Fair CLR 19.5 19.1 98% 76.07 0.0
01 21:15 Calm 16.09 Fair CLR 19.8 19.2 96% 76.05 0.0
01 20:55 Calm 11.27 Fair CLR 20.5 19.3 93% 76.05 0.0
01 20:35 Calm 16.09 Fair CLR 20.5 19.5 94% 76.05 0.0
01 20:15 Calm 16.09 Partly Cloudy SCT120 21.4 19.6 90% 76.05 0.0
01 19:55 Calm 16.09 Partly Cloudy SCT120 21.6 19.3 87% 76.05 0.0
01 19:35 Calm 16.09 Fair CLR 22.6 18.7 79% 76.05 0.0
01 19:15 N 6 16.09 Fair CLR 23.4 19.6 79% 76.07 0.0
01 18:55 Calm 16.09 Fair CLR 24.2 19.9 28.7 24.2 77% 25 76.07 0.0
01 18:35 NW 9 16.09 Partly Cloudy SCT120 24.6 20.2 77% 25 76.07 0.0
01 18:15 Calm 16.09 Partly Cloudy SCT120 24.5 20.3 78% 25 76.1 0.0
01 17:55 Calm 16.09 Partly Cloudy SCT120 24.3 20.2 78% 25 76.1 0.0
01 17:35 Calm 16.09 Light Rain SCT050 SCT075 SCT100 25.2 19.7 72% 26 76.1 0.0
01 17:15 Calm 16.09 Partly Cloudy SCT120 25.1 20.7 77% 26 76.1 0.0
01 16:55 Calm 16.09 Fair CLR 25.1 20.3 75% 26 76.07 0.0
01 16:35 Calm 16.09 Fair CLR 26.6 18.3 60% 28 76.07 0.0
01 16:15 Calm 16.09 Fair CLR 26.6 18.7 62% 28 76.1 0.0
01 15:55 Calm 16.09 Fair CLR 26.8 18.7 61% 28 76.07 0.0
01 15:35 Calm 16.09 Fair CLR 27.1 18.5 59% 28 76.07 0.0
01 15:15 Calm 16.09 Fair CLR 26.4 18.3 61% 27 76.1 0.0
01 14:55 Calm 16.09 Fair CLR 27.1 16.9 54% 28 76.1 0.0
01 14:35 Calm 16.09 Fair CLR 28.5 15.5 45% 29 76.12 0.0
01 14:15 Calm 16.09 Fair CLR 28.6 16 46% 29 76.12 0.0
01 13:55 Calm 16.09 Fair CLR 28.3 15.9 47% 29 76.12 0.0
01 13:35 NE 6 16.09 Fair CLR 28.1 16.3 49% 28 76.12 0.0
01 13:15 W 6 16.09 Fair CLR 27.3 16.6 52% 28 76.12 0.0
01 12:55 Calm 16.09 Fair CLR 27.4 16.3 27.8 12.9 51% 28 76.15 0.0
01 12:35 Calm 16.09 Fair CLR 27.1 16.5 52% 28 76.17 0.0
01 12:15 Calm 16.09 Fair CLR 26.8 16.4 53% 27 76.17 0.0
01 11:55 Calm 16.09 Fair CLR 26.7 16.1 52% 27 76.17 0.0
01 11:35 Calm 16.09 Fair CLR 26.9 15.3 49% 27 76.17 0.0
01 11:15 Calm 16.09 Fair CLR 26.4 14.9 49% 27 76.17 0.0
01 10:55 NW 6 16.09 Fair CLR 25.7 16.3 56% 27 76.17 0.0
01 10:35 NW 6 16.09 Fair CLR 24 17.7 68% 25 76.17 0.0
01 10:15 N 9 16.09 Fair CLR 23.4 18.3 73% 76.17 0.0
01 09:55 NW 9 16.09 Fair CLR 23.5 18.5 74% 76.17 0.0
01 09:35 Calm 16.09 Fair CLR 22.1 18.3 79% 76.17 0.0
01 09:17 Calm 16.09 Fair CLR 21.3 17.6 80% 76.2 0.0
01 08:55 Calm 16.09 Fair CLR 20 18.2 89% 76.2 0.0
01 08:35 Calm 16.09 Fair CLR 18.3 18.1 99% 76.2 0.0
01 08:15 Calm 16.09 Fair CLR 16.5 16.2 98% 76.2 0.0
01 07:55 Calm 16.09 Fair CLR 15.1 14.9 99% 76.17 0.0
01 07:35 Calm 16.09 Fair CLR 14.5 14.2 98% 76.17 0.0
01 07:15 Calm 16.09 Fair CLR 14 13 94% 76.17 0.0
01 06:55 Calm 8.05 Fog/Mist CLR 12.9 12.7 16.1 12.5 99% 76.15 0.0
01 06:35 Calm 16.09 Fair CLR 12.8 12.6 99% 76.15 0.0
01 06:15 Calm 11.27 Fair CLR 13.2 12.9 98% 76.12 0.0
01 05:55 Calm 8.05 Fog/Mist CLR 13.3 13 98% 76.12 0.0
01 05:35 Calm 11.27 Fair CLR 14.2 13.9 98% 76.12 0.0
01 05:15 Calm 16.09 Fair CLR 13.8 13.4 97% 76.12 0.0
01 04:55 NW 6 16.09 Fair CLR 13.7 13.4 98% 76.1 0.0
01 04:35 Calm 16.09 Fair CLR 14.1 13.8 98% 76.1 0.0
01 04:15 Calm 11.27 Fair CLR 13.1 12.9 99% 76.07 0.0
01 03:55 Calm 16.09 Fair CLR 13 13 100% 76.07 0.0
01 03:35 Calm 11.27 Fair CLR 14.1 13.8 98% 76.07 0.0
01 03:15 Calm 8.05 Fog/Mist CLR 14.3 14 98% 76.07 0.0
01 02:55 Calm 16.09 Fair CLR 14.7 14.4 98% 76.07 0.0
01 02:35 Calm 11.27 Fair CLR 14.3 14 98% 76.1 0.0
01 02:15 Calm 16.09 Fair CLR 15 14.7 98% 76.1 0.0
01 01:55 Calm 11.27 Fair CLR 14.4 14 97% 76.12 0.0
01 01:35 Calm 16.09 Fair CLR 15 14.7 98% 76.12 0.0
01 01:15 Calm 11.27 Fair CLR 16.1 15.8 98% 76.12 0.0
01 00:55 Calm 16.09 Fair CLR 15.4 15.1 23.8 14.7 98% 76.12 0.0
01 00:15 Calm 6.44 Fog/Mist CLR 15.3 15 98% 76.1 0.0
31 23:55 Calm 8.05 Fog/Mist CLR 15.3 15 98% 76.1 0.0
31 23:35 Calm 16.09 Fair CLR 15.6 15.3 98% 76.07 0.0
31 23:15 Calm 16.09 Fair CLR 15.7 15.4 98% 76.07 0.0
31 22:55 Calm 2.01 Fog/Mist VV007 16.3 16 98% 76.07 0.0
31 22:35 Calm 11.27 Fair CLR 16.3 16 98% 76.07 0.0
31 22:15 Calm 8.05 Fog/Mist CLR 17 16.6 98% 76.07 0.0
31 21:55 Calm 11.27 Fair CLR 16.7 16.4 98% 76.07 0.0
31 21:35 Calm 16.09 Fair CLR 17.1 16.8 98% 76.07 0.0
31 21:15 Calm 16.09 Fair CLR 17.1 16.8 98% 76.05 0.0
31 20:55 Calm 16.09 Fair CLR 18.9 18.4 97% 76.05 0.0
31 20:35 Calm 16.09 Fair CLR 19.2 18.5 96% 76 0.0
31 20:15 Calm 16.09 Fair CLR 19.7 18.8 95% 76 0.0
31 19:55 Calm 16.09 Fair CLR 20.4 19 92% 76 0.0
31 19:35 Calm 16.09 Fair CLR 22 18.5 81% 76 0.0
Date Time (cdt) Wind (kph) Vis. (km) Weather Sky Cond. Air Dwpt Max. Min. Relative Humidity Wind Chill (°C) Heat Index (°C) altimeter (cm) sea level (mb) 1 hr 3 hr 6 hr
6 hour
Temperature (ºC) Pressure Precipitation (cm)